sensor_id;sensor_type;location;lat;lon;timestamp;temperature;humidity
6581;DHT22;3324;50.796;7.228;2023-02-01T00:00:01;7.80;99.90
6581;DHT22;3324;50.796;7.228;2023-02-01T00:02:27;7.70;99.90
6581;DHT22;3324;50.796;7.228;2023-02-01T00:04:52;7.70;99.90
6581;DHT22;3324;50.796;7.228;2023-02-01T00:07:18;7.70;99.90
6581;DHT22;3324;50.796;7.228;2023-02-01T00:09:43;7.70;99.90
6581;DHT22;3324;50.796;7.228;2023-02-01T00:12:09;7.80;99.90
6581;DHT22;3324;50.796;7.228;2023-02-01T00:14:35;7.70;99.90
6581;DHT22;3324;50.796;7.228;2023-02-01T00:17:05;7.70;99.90
6581;DHT22;3324;50.796;7.228;2023-02-01T00:19:32;7.80;99.90
6581;DHT22;3324;50.796;7.228;2023-02-01T00:21:57;7.80;99.90
6581;DHT22;3324;50.796;7.228;2023-02-01T00:24:23;7.90;99.90
6581;DHT22;3324;50.796;7.228;2023-02-01T00:26:49;7.80;99.90
6581;DHT22;3324;50.796;7.228;2023-02-01T00:29:16;7.80;99.90
6581;DHT22;3324;50.796;7.228;2023-02-01T00:31:43;7.80;99.90
6581;DHT22;3324;50.796;7.228;2023-02-01T00:34:13;7.80;99.90
6581;DHT22;3324;50.796;7.228;2023-02-01T00:36:40;7.90;99.90
6581;DHT22;3324;50.796;7.228;2023-02-01T00:39:06;7.80;99.90
6581;DHT22;3324;50.796;7.228;2023-02-01T00:41:32;7.80;99.90
6581;DHT22;3324;50.796;7.228;2023-02-01T00:43:58;7.80;99.90
6581;DHT22;3324;50.796;7.228;2023-02-01T00:46:24;7.70;99.90
6581;DHT22;3324;50.796;7.228;2023-02-01T00:48:50;7.80;99.90
6581;DHT22;3324;50.796;7.228;2023-02-01T00:51:20;7.70;99.90
6581;DHT22;3324;50.796;7.228;2023-02-01T00:53:46;7.70;99.90
6581;DHT22;3324;50.796;7.228;2023-02-01T00:56:12;7.70;99.90
6581;DHT22;3324;50.796;7.228;2023-02-01T00:58:38;7.60;99.90
6581;DHT22;3324;50.796;7.228;2023-02-01T01:01:11;7.70;99.90
6581;DHT22;3324;50.796;7.228;2023-02-01T01:03:42;7.60;99.90
6581;DHT22;3324;50.796;7.228;2023-02-01T01:06:11;7.60;99.90
6581;DHT22;3324;50.796;7.228;2023-02-01T01:08:38;7.70;99.90
6581;DHT22;3324;50.796;7.228;2023-02-01T01:11:15;7.60;99.90
6581;DHT22;3324;50.796;7.228;2023-02-01T01:13:42;7.60;99.90
6581;DHT22;3324;50.796;7.228;2023-02-01T01:18:33;7.70;99.90
6581;DHT22;3324;50.796;7.228;2023-02-01T01:20:59;7.70;99.90
6581;DHT22;3324;50.796;7.228;2023-02-01T01:23:25;7.60;99.90
6581;DHT22;3324;50.796;7.228;2023-02-01T01:25:51;7.70;99.90
6581;DHT22;3324;50.796;7.228;2023-02-01T01:28:17;7.70;99.90
6581;DHT22;3324;50.796;7.228;2023-02-01T01:30:43;7.60;99.90
6581;DHT22;3324;50.796;7.228;2023-02-01T01:33:09;7.70;99.90
6581;DHT22;3324;50.796;7.228;2023-02-01T01:35:35;7.60;99.90
6581;DHT22;3324;50.796;7.228;2023-02-01T01:38:01;7.60;99.90
6581;DHT22;3324;50.796;7.228;2023-02-01T01:40:28;7.60;99.90
6581;DHT22;3324;50.796;7.228;2023-02-01T01:42:54;7.60;99.90
6581;DHT22;3324;50.796;7.228;2023-02-01T01:45:50;7.60;99.90
6581;DHT22;3324;50.796;7.228;2023-02-01T01:48:21;7.60;99.90
6581;DHT22;3324;50.796;7.228;2023-02-01T01:51:20;7.50;99.90
6581;DHT22;3324;50.796;7.228;2023-02-01T01:53:53;7.50;99.90
6581;DHT22;3324;50.796;7.228;2023-02-01T01:56:21;7.50;99.90
6581;DHT22;3324;50.796;7.228;2023-02-01T01:58:47;7.50;99.90
6581;DHT22;3324;50.796;7.228;2023-02-01T02:01:13;7.50;99.90
6581;DHT22;3324;50.796;7.228;2023-02-01T02:03:42;7.60;99.90
6581;DHT22;3324;50.796;7.228;2023-02-01T02:07:02;7.60;99.90
6581;DHT22;3324;50.796;7.228;2023-02-01T02:09:01;7.60;99.90
6581;DHT22;3324;50.796;7.228;2023-02-01T02:11:27;7.50;99.90
6581;DHT22;3324;50.796;7.228;2023-02-01T02:13:54;7.50;99.90
6581;DHT22;3324;50.796;7.228;2023-02-01T02:28:47;7.40;99.90
6581;DHT22;3324;50.796;7.228;2023-02-01T02:39:59;7.50;99.90
6581;DHT22;3324;50.796;7.228;2023-02-01T02:42:41;7.40;99.90
6581;DHT22;3324;50.796;7.228;2023-02-01T02:45:44;7.40;99.90
6581;DHT22;3324;50.796;7.228;2023-02-01T02:48:42;7.40;99.90
6581;DHT22;3324;50.796;7.228;2023-02-01T02:51:15;7.40;99.90
6581;DHT22;3324;50.796;7.228;2023-02-01T02:54:07;7.40;99.90
6581;DHT22;3324;50.796;7.228;2023-02-01T02:56:55;7.40;99.90
6581;DHT22;3324;50.796;7.228;2023-02-01T02:59:41;7.40;99.90
6581;DHT22;3324;50.796;7.228;2023-02-01T03:02:27;7.50;99.90
6581;DHT22;3324;50.796;7.228;2023-02-01T03:05:12;7.50;99.90
6581;DHT22;3324;50.796;7.228;2023-02-01T03:13:08;7.40;99.90
6581;DHT22;3324;50.796;7.228;2023-02-01T03:15:40;7.50;99.90
6581;DHT22;3324;50.796;7.228;2023-02-01T03:21:40;7.50;99.90
6581;DHT22;3324;50.796;7.228;2023-02-01T03:24:29;7.50;99.90
6581;DHT22;3324;50.796;7.228;2023-02-01T03:27:24;7.50;99.90
6581;DHT22;3324;50.796;7.228;2023-02-01T03:32:19;7.50;99.90
6581;DHT22;3324;50.796;7.228;2023-02-01T03:34:46;7.50;99.90
6581;DHT22;3324;50.796;7.228;2023-02-01T03:37:15;7.50;99.90
6581;DHT22;3324;50.796;7.228;2023-02-01T03:40:06;7.40;99.90
6581;DHT22;3324;50.796;7.228;2023-02-01T03:42:49;7.40;99.90
6581;DHT22;3324;50.796;7.228;2023-02-01T03:45:29;7.40;99.90
6581;DHT22;3324;50.796;7.228;2023-02-01T03:47:58;7.50;99.90
6581;DHT22;3324;50.796;7.228;2023-02-01T03:50:26;7.50;99.90
6581;DHT22;3324;50.796;7.228;2023-02-01T03:53:14;7.60;99.90
6581;DHT22;3324;50.796;7.228;2023-02-01T03:55:42;7.60;99.90
6581;DHT22;3324;50.796;7.228;2023-02-01T03:58:21;7.60;99.90
6581;DHT22;3324;50.796;7.228;2023-02-01T04:00:57;7.60;99.90
6581;DHT22;3324;50.796;7.228;2023-02-01T04:03:25;7.50;99.90
6581;DHT22;3324;50.796;7.228;2023-02-01T04:05:51;7.50;99.90
6581;DHT22;3324;50.796;7.228;2023-02-01T04:08:21;7.50;99.90
6581;DHT22;3324;50.796;7.228;2023-02-01T04:10:46;7.50;99.90
6581;DHT22;3324;50.796;7.228;2023-02-01T04:13:12;7.40;99.90
6581;DHT22;3324;50.796;7.228;2023-02-01T04:15:38;7.40;99.90
6581;DHT22;3324;50.796;7.228;2023-02-01T04:18:04;7.40;99.90
6581;DHT22;3324;50.796;7.228;2023-02-01T04:20:29;7.40;99.90
6581;DHT22;3324;50.796;7.228;2023-02-01T04:22:55;7.40;99.90
6581;DHT22;3324;50.796;7.228;2023-02-01T04:25:21;7.30;99.90
6581;DHT22;3324;50.796;7.228;2023-02-01T04:27:46;7.40;99.90
6581;DHT22;3324;50.796;7.228;2023-02-01T04:30:13;7.30;99.90
6581;DHT22;3324;50.796;7.228;2023-02-01T04:32:38;7.40;99.90
6581;DHT22;3324;50.796;7.228;2023-02-01T04:35:05;7.30;99.90
6581;DHT22;3324;50.796;7.228;2023-02-01T04:37:31;7.30;99.90
6581;DHT22;3324;50.796;7.228;2023-02-01T04:39:56;7.30;99.90
6581;DHT22;3324;50.796;7.228;2023-02-01T04:42:22;7.40;99.90
6581;DHT22;3324;50.796;7.228;2023-02-01T04:44:47;7.30;99.90
6581;DHT22;3324;50.796;7.228;2023-02-01T04:47:13;7.40;99.90
6581;DHT22;3324;50.796;7.228;2023-02-01T04:49:40;7.40;99.90
6581;DHT22;3324;50.796;7.228;2023-02-01T04:52:06;7.40;99.90
6581;DHT22;3324;50.796;7.228;2023-02-01T04:54:32;7.40;99.90
6581;DHT22;3324;50.796;7.228;2023-02-01T04:56:58;7.40;99.90
6581;DHT22;3324;50.796;7.228;2023-02-01T04:59:24;7.40;99.90
6581;DHT22;3324;50.796;7.228;2023-02-01T05:01:49;7.40;99.90
6581;DHT22;3324;50.796;7.228;2023-02-01T05:04:15;7.40;99.90
6581;DHT22;3324;50.796;7.228;2023-02-01T05:06:40;7.50;99.90
6581;DHT22;3324;50.796;7.228;2023-02-01T05:09:06;7.40;99.90
6581;DHT22;3324;50.796;7.228;2023-02-01T05:11:31;7.40;99.90
6581;DHT22;3324;50.796;7.228;2023-02-01T05:14:15;7.40;99.90
6581;DHT22;3324;50.796;7.228;2023-02-01T05:16:41;7.40;99.90
6581;DHT22;3324;50.796;7.228;2023-02-01T05:19:06;7.30;99.90
6581;DHT22;3324;50.796;7.228;2023-02-01T05:21:32;7.30;99.90
6581;DHT22;3324;50.796;7.228;2023-02-01T05:23:58;7.30;99.90
6581;DHT22;3324;50.796;7.228;2023-02-01T05:26:36;7.20;99.90
6581;DHT22;3324;50.796;7.228;2023-02-01T05:29:02;7.10;99.90
6581;DHT22;3324;50.796;7.228;2023-02-01T05:31:27;7.10;99.90
6581;DHT22;3324;50.796;7.228;2023-02-01T05:33:53;7.10;99.90
6581;DHT22;3324;50.796;7.228;2023-02-01T05:36:19;7.10;99.90
6581;DHT22;3324;50.796;7.228;2023-02-01T05:38:44;7.00;99.90
6581;DHT22;3324;50.796;7.228;2023-02-01T05:41:10;7.10;99.90
6581;DHT22;3324;50.796;7.228;2023-02-01T05:43:35;7.10;99.90
6581;DHT22;3324;50.796;7.228;2023-02-01T05:46:01;7.00;99.90
6581;DHT22;3324;50.796;7.228;2023-02-01T05:48:27;7.00;99.90
6581;DHT22;3324;50.796;7.228;2023-02-01T05:50:53;7.00;99.90
6581;DHT22;3324;50.796;7.228;2023-02-01T05:53:18;7.00;99.90
6581;DHT22;3324;50.796;7.228;2023-02-01T05:55:44;7.00;99.90
6581;DHT22;3324;50.796;7.228;2023-02-01T05:58:09;7.00;99.90
6581;DHT22;3324;50.796;7.228;2023-02-01T06:00:35;7.00;99.90
6581;DHT22;3324;50.796;7.228;2023-02-01T06:03:00;7.00;99.90
6581;DHT22;3324;50.796;7.228;2023-02-01T06:05:26;7.00;99.90
6581;DHT22;3324;50.796;7.228;2023-02-01T06:07:54;7.10;99.90
6581;DHT22;3324;50.796;7.228;2023-02-01T06:10:20;7.00;99.90
6581;DHT22;3324;50.796;7.228;2023-02-01T06:12:46;7.00;99.90
6581;DHT22;3324;50.796;7.228;2023-02-01T06:15:12;7.00;99.90
6581;DHT22;3324;50.796;7.228;2023-02-01T06:17:38;7.00;99.90
6581;DHT22;3324;50.796;7.228;2023-02-01T06:20:06;7.00;99.90
6581;DHT22;3324;50.796;7.228;2023-02-01T06:22:33;7.00;99.90
6581;DHT22;3324;50.796;7.228;2023-02-01T06:24:58;7.00;99.90
6581;DHT22;3324;50.796;7.228;2023-02-01T06:27:25;7.00;99.90
6581;DHT22;3324;50.796;7.228;2023-02-01T06:29:50;7.00;99.90
6581;DHT22;3324;50.796;7.228;2023-02-01T06:32:16;7.10;99.90
6581;DHT22;3324;50.796;7.228;2023-02-01T06:34:43;7.00;99.90
6581;DHT22;3324;50.796;7.228;2023-02-01T06:37:08;7.00;99.90
6581;DHT22;3324;50.796;7.228;2023-02-01T06:39:36;7.00;99.90
6581;DHT22;3324;50.796;7.228;2023-02-01T06:42:02;7.10;99.90
6581;DHT22;3324;50.796;7.228;2023-02-01T06:44:27;7.00;99.90
6581;DHT22;3324;50.796;7.228;2023-02-01T06:46:53;7.00;99.90
6581;DHT22;3324;50.796;7.228;2023-02-01T06:49:20;7.00;99.90
6581;DHT22;3324;50.796;7.228;2023-02-01T06:51:45;7.00;99.90
6581;DHT22;3324;50.796;7.228;2023-02-01T06:54:11;7.00;99.90
6581;DHT22;3324;50.796;7.228;2023-02-01T06:56:37;7.10;99.90
6581;DHT22;3324;50.796;7.228;2023-02-01T06:59:06;7.00;99.90
6581;DHT22;3324;50.796;7.228;2023-02-01T07:01:32;7.00;99.90
6581;DHT22;3324;50.796;7.228;2023-02-01T07:03:58;7.00;99.90
6581;DHT22;3324;50.796;7.228;2023-02-01T07:06:24;7.00;99.90
6581;DHT22;3324;50.796;7.228;2023-02-01T07:08:50;7.00;99.90
6581;DHT22;3324;50.796;7.228;2023-02-01T07:11:16;7.00;99.90
6581;DHT22;3324;50.796;7.228;2023-02-01T07:13:43;7.00;99.90
6581;DHT22;3324;50.796;7.228;2023-02-01T07:16:11;7.00;99.90
6581;DHT22;3324;50.796;7.228;2023-02-01T07:18:37;7.00;99.90
6581;DHT22;3324;50.796;7.228;2023-02-01T07:21:03;7.10;99.90
6581;DHT22;3324;50.796;7.228;2023-02-01T07:23:29;7.00;99.90
6581;DHT22;3324;50.796;7.228;2023-02-01T07:25:56;7.00;99.90
6581;DHT22;3324;50.796;7.228;2023-02-01T07:28:22;7.00;99.90
6581;DHT22;3324;50.796;7.228;2023-02-01T07:30:48;7.00;99.90
6581;DHT22;3324;50.796;7.228;2023-02-01T07:33:20;7.10;99.90
6581;DHT22;3324;50.796;7.228;2023-02-01T07:35:47;7.10;99.90
6581;DHT22;3324;50.796;7.228;2023-02-01T07:38:12;7.10;99.90
6581;DHT22;3324;50.796;7.228;2023-02-01T07:40:38;7.10;99.90
6581;DHT22;3324;50.796;7.228;2023-02-01T07:43:04;7.10;99.90
6581;DHT22;3324;50.796;7.228;2023-02-01T07:45:31;7.10;99.90
6581;DHT22;3324;50.796;7.228;2023-02-01T07:47:57;7.10;99.90
6581;DHT22;3324;50.796;7.228;2023-02-01T07:50:22;7.10;99.90
6581;DHT22;3324;50.796;7.228;2023-02-01T07:52:48;7.10;99.90
6581;DHT22;3324;50.796;7.228;2023-02-01T07:55:14;7.10;99.90
6581;DHT22;3324;50.796;7.228;2023-02-01T07:57:39;7.00;99.90
6581;DHT22;3324;50.796;7.228;2023-02-01T08:00:05;7.10;99.90
6581;DHT22;3324;50.796;7.228;2023-02-01T08:02:50;7.10;99.90
6581;DHT22;3324;50.796;7.228;2023-02-01T08:05:15;7.10;99.90
6581;DHT22;3324;50.796;7.228;2023-02-01T08:07:41;7.10;99.90
6581;DHT22;3324;50.796;7.228;2023-02-01T08:10:07;7.10;99.90
6581;DHT22;3324;50.796;7.228;2023-02-01T08:12:36;7.20;99.90
6581;DHT22;3324;50.796;7.228;2023-02-01T08:15:03;7.20;99.90
6581;DHT22;3324;50.796;7.228;2023-02-01T08:17:29;7.10;99.90
6581;DHT22;3324;50.796;7.228;2023-02-01T08:19:55;7.10;99.90
6581;DHT22;3324;50.796;7.228;2023-02-01T08:22:20;7.10;99.90
6581;DHT22;3324;50.796;7.228;2023-02-01T08:24:49;7.20;99.90
6581;DHT22;3324;50.796;7.228;2023-02-01T08:27:14;7.10;99.90
6581;DHT22;3324;50.796;7.228;2023-02-01T08:29:40;7.20;99.90
6581;DHT22;3324;50.796;7.228;2023-02-01T08:32:05;7.20;99.90
6581;DHT22;3324;50.796;7.228;2023-02-01T08:34:31;7.20;99.90
6581;DHT22;3324;50.796;7.228;2023-02-01T08:36:57;7.20;99.90
6581;DHT22;3324;50.796;7.228;2023-02-01T08:39:23;7.20;99.90
6581;DHT22;3324;50.796;7.228;2023-02-01T08:41:48;7.30;99.90
6581;DHT22;3324;50.796;7.228;2023-02-01T08:44:34;7.20;99.90
6581;DHT22;3324;50.796;7.228;2023-02-01T08:46:59;7.20;99.90
6581;DHT22;3324;50.796;7.228;2023-02-01T08:49:25;7.20;99.90
6581;DHT22;3324;50.796;7.228;2023-02-01T08:51:51;7.30;99.90
6581;DHT22;3324;50.796;7.228;2023-02-01T08:54:16;7.20;99.90
6581;DHT22;3324;50.796;7.228;2023-02-01T08:56:42;7.20;99.90
6581;DHT22;3324;50.796;7.228;2023-02-01T08:59:07;7.30;99.90
6581;DHT22;3324;50.796;7.228;2023-02-01T09:01:33;7.30;99.90
6581;DHT22;3324;50.796;7.228;2023-02-01T09:03:58;7.30;99.90
6581;DHT22;3324;50.796;7.228;2023-02-01T09:06:24;7.30;99.90
6581;DHT22;3324;50.796;7.228;2023-02-01T09:08:50;7.30;99.90
6581;DHT22;3324;50.796;7.228;2023-02-01T09:11:17;7.40;99.90
6581;DHT22;3324;50.796;7.228;2023-02-01T09:13:44;7.40;99.90
6581;DHT22;3324;50.796;7.228;2023-02-01T09:16:10;7.40;99.90
6581;DHT22;3324;50.796;7.228;2023-02-01T09:18:36;7.50;99.90
6581;DHT22;3324;50.796;7.228;2023-02-01T09:21:06;7.50;99.90
6581;DHT22;3324;50.796;7.228;2023-02-01T09:23:32;7.60;99.90
6581;DHT22;3324;50.796;7.228;2023-02-01T09:26:02;7.60;99.90
6581;DHT22;3324;50.796;7.228;2023-02-01T09:28:29;7.60;99.90
6581;DHT22;3324;50.796;7.228;2023-02-01T09:31:01;7.60;99.90
6581;DHT22;3324;50.796;7.228;2023-02-01T09:33:28;7.70;99.90
6581;DHT22;3324;50.796;7.228;2023-02-01T09:35:58;7.70;99.90
6581;DHT22;3324;50.796;7.228;2023-02-01T09:38:24;7.70;99.90
6581;DHT22;3324;50.796;7.228;2023-02-01T09:40:51;7.70;99.90
6581;DHT22;3324;50.796;7.228;2023-02-01T09:43:40;7.70;99.90
6581;DHT22;3324;50.796;7.228;2023-02-01T09:46:28;7.70;99.90
6581;DHT22;3324;50.796;7.228;2023-02-01T09:48:57;7.70;99.90
6581;DHT22;3324;50.796;7.228;2023-02-01T09:51:27;7.70;99.90
6581;DHT22;3324;50.796;7.228;2023-02-01T09:54:11;7.70;99.90
6581;DHT22;3324;50.796;7.228;2023-02-01T09:57:07;7.80;99.90
6581;DHT22;3324;50.796;7.228;2023-02-01T09:59:40;7.80;99.90
6581;DHT22;3324;50.796;7.228;2023-02-01T10:02:18;7.80;99.90
6581;DHT22;3324;50.796;7.228;2023-02-01T10:04:46;7.80;99.90
6581;DHT22;3324;50.796;7.228;2023-02-01T10:10:14;7.80;99.90
6581;DHT22;3324;50.796;7.228;2023-02-01T10:18:27;8.30;99.90
6581;DHT22;3324;50.796;7.228;2023-02-01T10:27:11;8.10;99.90
6581;DHT22;3324;50.796;7.228;2023-02-01T10:29:40;8.00;99.90
6581;DHT22;3324;50.796;7.228;2023-02-01T10:32:14;8.00;99.90
6581;DHT22;3324;50.796;7.228;2023-02-01T10:34:41;8.00;99.90
6581;DHT22;3324;50.796;7.228;2023-02-01T10:37:39;8.00;99.90
6581;DHT22;3324;50.796;7.228;2023-02-01T10:40:20;8.00;99.90
6581;DHT22;3324;50.796;7.228;2023-02-01T10:42:49;8.10;99.90
6581;DHT22;3324;50.796;7.228;2023-02-01T10:45:19;8.10;99.90
6581;DHT22;3324;50.796;7.228;2023-02-01T10:47:45;8.20;99.90
6581;DHT22;3324;50.796;7.228;2023-02-01T10:53:29;8.30;99.90
6581;DHT22;3324;50.796;7.228;2023-02-01T10:55:56;8.40;99.90
6581;DHT22;3324;50.796;7.228;2023-02-01T10:58:30;8.50;99.90
6581;DHT22;3324;50.796;7.228;2023-02-01T11:01:08;8.60;99.90
6581;DHT22;3324;50.796;7.228;2023-02-01T11:03:39;8.70;99.90
6581;DHT22;3324;50.796;7.228;2023-02-01T11:08:47;8.90;99.90
6581;DHT22;3324;50.796;7.228;2023-02-01T11:11:14;9.10;99.90
6581;DHT22;3324;50.796;7.228;2023-02-01T11:13:40;9.10;99.90
6581;DHT22;3324;50.796;7.228;2023-02-01T11:16:06;9.10;99.90
6581;DHT22;3324;50.796;7.228;2023-02-01T11:18:37;9.20;99.90
6581;DHT22;3324;50.796;7.228;2023-02-01T11:21:04;9.20;99.90
6581;DHT22;3324;50.796;7.228;2023-02-01T11:23:32;9.20;99.90
6581;DHT22;3324;50.796;7.228;2023-02-01T11:26:15;9.20;99.90
6581;DHT22;3324;50.796;7.228;2023-02-01T11:28:52;9.20;99.90
6581;DHT22;3324;50.796;7.228;2023-02-01T11:31:18;9.10;99.90
6581;DHT22;3324;50.796;7.228;2023-02-01T11:33:51;9.10;99.90
6581;DHT22;3324;50.796;7.228;2023-02-01T11:36:21;9.00;99.90
6581;DHT22;3324;50.796;7.228;2023-02-01T11:43:52;8.80;99.90
6581;DHT22;3324;50.796;7.228;2023-02-01T11:46:19;8.90;99.90
6581;DHT22;3324;50.796;7.228;2023-02-01T11:48:51;8.90;99.90
6581;DHT22;3324;50.796;7.228;2023-02-01T12:00:00;9.00;99.90
6581;DHT22;3324;50.796;7.228;2023-02-01T12:08:36;9.10;99.90
6581;DHT22;3324;50.796;7.228;2023-02-01T12:16:27;8.90;99.90
6581;DHT22;3324;50.796;7.228;2023-02-01T12:21:55;8.80;99.90
6581;DHT22;3324;50.796;7.228;2023-02-01T12:33:06;8.70;99.90
6581;DHT22;3324;50.796;7.228;2023-02-01T12:35:44;8.80;99.90
6581;DHT22;3324;50.796;7.228;2023-02-01T12:40:46;8.80;99.90
6581;DHT22;3324;50.796;7.228;2023-02-01T12:44:01;8.80;99.90
6581;DHT22;3324;50.796;7.228;2023-02-01T12:46:13;8.80;99.90
6581;DHT22;3324;50.796;7.228;2023-02-01T12:51:26;8.70;99.90
6581;DHT22;3324;50.796;7.228;2023-02-01T12:56:44;8.80;99.90
6581;DHT22;3324;50.796;7.228;2023-02-01T12:59:31;8.80;99.90
6581;DHT22;3324;50.796;7.228;2023-02-01T13:02:05;8.80;99.90
6581;DHT22;3324;50.796;7.228;2023-02-01T13:04:42;8.70;99.90
6581;DHT22;3324;50.796;7.228;2023-02-01T13:07:41;8.80;99.90
6581;DHT22;3324;50.796;7.228;2023-02-01T13:10:14;8.80;99.90
6581;DHT22;3324;50.796;7.228;2023-02-01T13:15:16;8.90;99.90
6581;DHT22;3324;50.796;7.228;2023-02-01T13:17:43;8.80;99.90
6581;DHT22;3324;50.796;7.228;2023-02-01T13:20:21;8.80;99.90
6581;DHT22;3324;50.796;7.228;2023-02-01T13:22:57;8.80;99.90
6581;DHT22;3324;50.796;7.228;2023-02-01T13:25:40;8.80;99.90
6581;DHT22;3324;50.796;7.228;2023-02-01T13:28:16;8.80;99.90
6581;DHT22;3324;50.796;7.228;2023-02-01T13:44:20;8.80;99.90
6581;DHT22;3324;50.796;7.228;2023-02-01T13:46:51;8.70;99.90
6581;DHT22;3324;50.796;7.228;2023-02-01T13:49:26;8.70;99.90
6581;DHT22;3324;50.796;7.228;2023-02-01T13:51:55;8.70;99.90
6581;DHT22;3324;50.796;7.228;2023-02-01T13:56:50;8.70;99.90
6581;DHT22;3324;50.796;7.228;2023-02-01T14:13:37;8.60;99.90
6581;DHT22;3324;50.796;7.228;2023-02-01T14:21:19;8.60;99.90
6581;DHT22;3324;50.796;7.228;2023-02-01T14:24:04;8.60;99.90
6581;DHT22;3324;50.796;7.228;2023-02-01T14:37:32;8.70;99.90
6581;DHT22;3324;50.796;7.228;2023-02-01T14:42:45;8.70;99.90
6581;DHT22;3324;50.796;7.228;2023-02-01T14:47:54;8.70;99.90
6581;DHT22;3324;50.796;7.228;2023-02-01T15:03:41;8.80;99.90
6581;DHT22;3324;50.796;7.228;2023-02-01T15:06:30;8.80;99.90
6581;DHT22;3324;50.796;7.228;2023-02-01T15:09:04;8.80;99.90
6581;DHT22;3324;50.796;7.228;2023-02-01T15:12:03;8.80;99.90
6581;DHT22;3324;50.796;7.228;2023-02-01T15:14:36;8.80;99.90
6581;DHT22;3324;50.796;7.228;2023-02-01T15:17:03;8.80;99.90
6581;DHT22;3324;50.796;7.228;2023-02-01T15:20:03;8.90;99.90
6581;DHT22;3324;50.796;7.228;2023-02-01T15:22:30;8.90;99.90
6581;DHT22;3324;50.796;7.228;2023-02-01T15:24:58;8.90;99.90
6581;DHT22;3324;50.796;7.228;2023-02-01T15:27:25;8.90;99.90
6581;DHT22;3324;50.796;7.228;2023-02-01T15:29:51;8.90;99.90
6581;DHT22;3324;50.796;7.228;2023-02-01T15:32:32;8.90;99.90
6581;DHT22;3324;50.796;7.228;2023-02-01T15:34:58;8.90;99.90
6581;DHT22;3324;50.796;7.228;2023-02-01T15:37:26;8.90;99.90
6581;DHT22;3324;50.796;7.228;2023-02-01T15:45:19;8.90;99.90
6581;DHT22;3324;50.796;7.228;2023-02-01T15:47:49;9.00;99.90
6581;DHT22;3324;50.796;7.228;2023-02-01T15:50:19;9.00;99.90
6581;DHT22;3324;50.796;7.228;2023-02-01T15:52:47;9.00;99.90
6581;DHT22;3324;50.796;7.228;2023-02-01T15:55:34;9.00;99.90
6581;DHT22;3324;50.796;7.228;2023-02-01T15:58:08;9.00;99.90
6581;DHT22;3324;50.796;7.228;2023-02-01T16:00:55;9.00;99.90
6581;DHT22;3324;50.796;7.228;2023-02-01T16:06:03;9.00;99.90
6581;DHT22;3324;50.796;7.228;2023-02-01T16:08:30;9.00;99.90
6581;DHT22;3324;50.796;7.228;2023-02-01T16:11:25;9.00;99.90
6581;DHT22;3324;50.796;7.228;2023-02-01T16:13:51;9.00;99.90
6581;DHT22;3324;50.796;7.228;2023-02-01T16:16:16;9.00;99.90
6581;DHT22;3324;50.796;7.228;2023-02-01T16:18:42;9.00;99.90
6581;DHT22;3324;50.796;7.228;2023-02-01T16:21:09;9.00;99.90
6581;DHT22;3324;50.796;7.228;2023-02-01T16:23:35;9.00;99.90
6581;DHT22;3324;50.796;7.228;2023-02-01T16:26:01;8.90;99.90
6581;DHT22;3324;50.796;7.228;2023-02-01T16:28:27;8.90;99.90
6581;DHT22;3324;50.796;7.228;2023-02-01T16:30:52;8.90;99.90
6581;DHT22;3324;50.796;7.228;2023-02-01T16:33:19;8.80;99.90
6581;DHT22;3324;50.796;7.228;2023-02-01T16:35:47;8.80;99.90
6581;DHT22;3324;50.796;7.228;2023-02-01T16:38:15;8.80;99.90
6581;DHT22;3324;50.796;7.228;2023-02-01T16:40:44;8.70;99.90
6581;DHT22;3324;50.796;7.228;2023-02-01T16:43:28;8.70;99.90
6581;DHT22;3324;50.796;7.228;2023-02-01T16:45:59;8.60;99.90
6581;DHT22;3324;50.796;7.228;2023-02-01T16:48:27;8.50;99.90
6581;DHT22;3324;50.796;7.228;2023-02-01T16:50:55;8.40;99.90
6581;DHT22;3324;50.796;7.228;2023-02-01T16:53:22;8.40;99.90
6581;DHT22;3324;50.796;7.228;2023-02-01T16:55:49;8.30;99.90
6581;DHT22;3324;50.796;7.228;2023-02-01T16:58:16;8.30;99.90
6581;DHT22;3324;50.796;7.228;2023-02-01T17:00:42;8.30;99.90
6581;DHT22;3324;50.796;7.228;2023-02-01T17:03:10;8.20;99.90
6581;DHT22;3324;50.796;7.228;2023-02-01T17:05:38;8.20;99.90
6581;DHT22;3324;50.796;7.228;2023-02-01T17:08:05;8.20;99.90
6581;DHT22;3324;50.796;7.228;2023-02-01T17:10:32;8.10;99.90
6581;DHT22;3324;50.796;7.228;2023-02-01T17:12:57;8.00;99.90
6581;DHT22;3324;50.796;7.228;2023-02-01T17:15:29;8.10;99.90
6581;DHT22;3324;50.796;7.228;2023-02-01T17:17:56;8.10;99.90
6581;DHT22;3324;50.796;7.228;2023-02-01T17:20:24;8.00;99.90
6581;DHT22;3324;50.796;7.228;2023-02-01T17:22:52;8.00;99.90
6581;DHT22;3324;50.796;7.228;2023-02-01T17:25:19;7.90;99.90
6581;DHT22;3324;50.796;7.228;2023-02-01T17:27:46;7.90;99.90
6581;DHT22;3324;50.796;7.228;2023-02-01T17:30:13;7.90;99.90
6581;DHT22;3324;50.796;7.228;2023-02-01T17:32:39;7.90;99.90
6581;DHT22;3324;50.796;7.228;2023-02-01T17:35:12;7.90;99.90
6581;DHT22;3324;50.796;7.228;2023-02-01T17:37:40;7.90;99.90
6581;DHT22;3324;50.796;7.228;2023-02-01T17:40:07;7.80;99.90
6581;DHT22;3324;50.796;7.228;2023-02-01T17:42:32;7.80;99.90
6581;DHT22;3324;50.796;7.228;2023-02-01T17:47:52;7.80;99.90
6581;DHT22;3324;50.796;7.228;2023-02-01T17:50:18;7.80;99.90
6581;DHT22;3324;50.796;7.228;2023-02-01T17:52:44;7.80;99.90
6581;DHT22;3324;50.796;7.228;2023-02-01T17:55:20;7.80;99.90
6581;DHT22;3324;50.796;7.228;2023-02-01T17:57:48;7.80;99.90
6581;DHT22;3324;50.796;7.228;2023-02-01T18:00:14;7.80;99.90
6581;DHT22;3324;50.796;7.228;2023-02-01T18:02:41;7.80;99.90
6581;DHT22;3324;50.796;7.228;2023-02-01T18:05:21;7.80;99.90
6581;DHT22;3324;50.796;7.228;2023-02-01T18:07:48;7.80;99.90
6581;DHT22;3324;50.796;7.228;2023-02-01T18:10:14;7.80;99.90
6581;DHT22;3324;50.796;7.228;2023-02-01T18:12:40;7.90;99.90
6581;DHT22;3324;50.796;7.228;2023-02-01T18:15:20;7.90;99.90
6581;DHT22;3324;50.796;7.228;2023-02-01T18:17:46;7.80;99.90
6581;DHT22;3324;50.796;7.228;2023-02-01T18:20:22;7.90;99.90
6581;DHT22;3324;50.796;7.228;2023-02-01T18:22:49;7.90;99.90
6581;DHT22;3324;50.796;7.228;2023-02-01T18:25:21;7.90;99.90
6581;DHT22;3324;50.796;7.228;2023-02-01T18:27:53;7.90;99.90
6581;DHT22;3324;50.796;7.228;2023-02-01T18:30:27;7.90;99.90
6581;DHT22;3324;50.796;7.228;2023-02-01T18:32:55;7.80;99.90
6581;DHT22;3324;50.796;7.228;2023-02-01T18:35:27;7.80;99.90
6581;DHT22;3324;50.796;7.228;2023-02-01T18:37:53;7.90;99.90
6581;DHT22;3324;50.796;7.228;2023-02-01T18:40:26;7.90;99.90
6581;DHT22;3324;50.796;7.228;2023-02-01T18:42:53;7.90;99.90
6581;DHT22;3324;50.796;7.228;2023-02-01T18:47:48;7.90;99.90
6581;DHT22;3324;50.796;7.228;2023-02-01T18:50:16;7.90;99.90
6581;DHT22;3324;50.796;7.228;2023-02-01T18:52:45;7.90;99.90
6581;DHT22;3324;50.796;7.228;2023-02-01T18:55:11;7.90;99.90
6581;DHT22;3324;50.796;7.228;2023-02-01T18:57:38;7.90;99.90
6581;DHT22;3324;50.796;7.228;2023-02-01T19:00:06;7.90;99.90
6581;DHT22;3324;50.796;7.228;2023-02-01T19:02:32;8.00;99.90
6581;DHT22;3324;50.796;7.228;2023-02-01T19:04:58;8.00;99.90
6581;DHT22;3324;50.796;7.228;2023-02-01T19:07:24;8.00;99.90
6581;DHT22;3324;50.796;7.228;2023-02-01T19:09:49;8.00;99.90
6581;DHT22;3324;50.796;7.228;2023-02-01T19:12:15;8.00;99.90
6581;DHT22;3324;50.796;7.228;2023-02-01T19:14:40;8.00;99.90
6581;DHT22;3324;50.796;7.228;2023-02-01T19:17:08;8.00;99.90
6581;DHT22;3324;50.796;7.228;2023-02-01T19:19:34;8.10;99.90
6581;DHT22;3324;50.796;7.228;2023-02-01T19:22:01;8.00;99.90
6581;DHT22;3324;50.796;7.228;2023-02-01T19:24:28;8.00;99.90
6581;DHT22;3324;50.796;7.228;2023-02-01T19:26:54;8.10;99.90
6581;DHT22;3324;50.796;7.228;2023-02-01T19:29:21;8.10;99.90
6581;DHT22;3324;50.796;7.228;2023-02-01T19:31:47;8.10;99.90
6581;DHT22;3324;50.796;7.228;2023-02-01T19:34:13;8.10;99.90